sensor_id;sensor_type;location;lat;lon;timestamp;temperature;humidity
52211;DHT22;38179;52.756;6.906;2024-02-26T00:01:59;4.00;99.90
52211;DHT22;38179;52.756;6.906;2024-02-26T00:04:24;3.90;99.90
52211;DHT22;38179;52.756;6.906;2024-02-26T00:06:50;3.90;99.90
52211;DHT22;38179;52.756;6.906;2024-02-26T00:09:16;3.90;99.90
52211;DHT22;38179;52.756;6.906;2024-02-26T00:11:42;4.00;99.90
52211;DHT22;38179;52.756;6.906;2024-02-26T00:14:08;4.20;99.90
52211;DHT22;38179;52.756;6.906;2024-02-26T00:16:33;3.90;99.90
52211;DHT22;38179;52.756;6.906;2024-02-26T00:18:59;3.90;99.90
52211;DHT22;38179;52.756;6.906;2024-02-26T00:21:25;4.40;99.90
52211;DHT22;38179;52.756;6.906;2024-02-26T00:23:52;3.90;99.90
52211;DHT22;38179;52.756;6.906;2024-02-26T00:26:18;4.10;99.90
52211;DHT22;38179;52.756;6.906;2024-02-26T00:28:43;3.80;99.90
52211;DHT22;38179;52.756;6.906;2024-02-26T00:31:09;3.90;99.90
52211;DHT22;38179;52.756;6.906;2024-02-26T00:33:35;3.80;99.90
52211;DHT22;38179;52.756;6.906;2024-02-26T00:36:00;3.80;99.90
52211;DHT22;38179;52.756;6.906;2024-02-26T00:38:26;4.30;99.90
52211;DHT22;38179;52.756;6.906;2024-02-26T00:40:51;3.70;99.90
52211;DHT22;38179;52.756;6.906;2024-02-26T00:43:18;3.90;99.90
52211;DHT22;38179;52.756;6.906;2024-02-26T00:45:43;3.70;99.90
52211;DHT22;38179;52.756;6.906;2024-02-26T00:48:09;3.80;99.90
52211;DHT22;38179;52.756;6.906;2024-02-26T00:50:35;3.80;99.90
52211;DHT22;38179;52.756;6.906;2024-02-26T00:53:01;3.80;99.90
52211;DHT22;38179;52.756;6.906;2024-02-26T00:55:27;3.70;99.90
52211;DHT22;38179;52.756;6.906;2024-02-26T00:57:53;3.90;99.90
52211;DHT22;38179;52.756;6.906;2024-02-26T01:00:18;4.10;99.90
52211;DHT22;38179;52.756;6.906;2024-02-26T01:02:44;3.70;99.90
52211;DHT22;38179;52.756;6.906;2024-02-26T01:05:13;3.80;99.90
52211;DHT22;38179;52.756;6.906;2024-02-26T01:07:39;3.80;99.90
52211;DHT22;38179;52.756;6.906;2024-02-26T01:10:06;3.70;99.90
52211;DHT22;38179;52.756;6.906;2024-02-26T01:12:35;3.70;99.90
52211;DHT22;38179;52.756;6.906;2024-02-26T01:15:04;3.70;99.90
52211;DHT22;38179;52.756;6.906;2024-02-26T01:17:29;3.70;99.90
52211;DHT22;38179;52.756;6.906;2024-02-26T01:19:55;3.70;99.90
52211;DHT22;38179;52.756;6.906;2024-02-26T01:22:21;3.60;99.90
52211;DHT22;38179;52.756;6.906;2024-02-26T01:24:47;3.60;99.90
52211;DHT22;38179;52.756;6.906;2024-02-26T01:27:12;3.60;99.90
52211;DHT22;38179;52.756;6.906;2024-02-26T01:29:39;3.50;99.90
52211;DHT22;38179;52.756;6.906;2024-02-26T01:32:05;3.60;99.90
52211;DHT22;38179;52.756;6.906;2024-02-26T01:34:31;3.60;99.90
52211;DHT22;38179;52.756;6.906;2024-02-26T01:36:57;4.00;99.90
52211;DHT22;38179;52.756;6.906;2024-02-26T01:39:23;3.60;99.90
52211;DHT22;38179;52.756;6.906;2024-02-26T01:41:49;3.50;99.90
52211;DHT22;38179;52.756;6.906;2024-02-26T01:44:14;3.50;99.90
52211;DHT22;38179;52.756;6.906;2024-02-26T01:46:40;3.50;99.90
52211;DHT22;38179;52.756;6.906;2024-02-26T01:49:07;3.50;99.90
52211;DHT22;38179;52.756;6.906;2024-02-26T01:51:35;3.80;99.90
52211;DHT22;38179;52.756;6.906;2024-02-26T01:54:02;3.50;99.90
52211;DHT22;38179;52.756;6.906;2024-02-26T01:56:29;3.50;99.90
52211;DHT22;38179;52.756;6.906;2024-02-26T01:58:57;3.50;99.90
52211;DHT22;38179;52.756;6.906;2024-02-26T02:01:25;3.50;99.90
52211;DHT22;38179;52.756;6.906;2024-02-26T02:03:53;3.50;99.90
52211;DHT22;38179;52.756;6.906;2024-02-26T02:06:19;3.50;99.90
52211;DHT22;38179;52.756;6.906;2024-02-26T02:08:45;3.40;99.90
52211;DHT22;38179;52.756;6.906;2024-02-26T02:11:11;3.50;99.90
52211;DHT22;38179;52.756;6.906;2024-02-26T02:13:37;3.50;99.90
52211;DHT22;38179;52.756;6.906;2024-02-26T02:16:04;3.40;99.90
52211;DHT22;38179;52.756;6.906;2024-02-26T02:18:30;3.40;99.90
52211;DHT22;38179;52.756;6.906;2024-02-26T02:20:55;3.40;99.90
52211;DHT22;38179;52.756;6.906;2024-02-26T02:23:27;3.50;99.90
52211;DHT22;38179;52.756;6.906;2024-02-26T02:25:53;3.30;99.90
52211;DHT22;38179;52.756;6.906;2024-02-26T02:28:20;3.40;99.90
52211;DHT22;38179;52.756;6.906;2024-02-26T02:30:47;3.40;99.90
52211;DHT22;38179;52.756;6.906;2024-02-26T02:33:14;3.50;99.90
52211;DHT22;38179;52.756;6.906;2024-02-26T02:35:41;3.90;99.90
52211;DHT22;38179;52.756;6.906;2024-02-26T02:38:06;3.40;99.90
52211;DHT22;38179;52.756;6.906;2024-02-26T02:40:32;3.40;99.90
52211;DHT22;38179;52.756;6.906;2024-02-26T02:42:57;3.30;99.90
52211;DHT22;38179;52.756;6.906;2024-02-26T02:45:24;3.40;99.90
52211;DHT22;38179;52.756;6.906;2024-02-26T02:47:49;3.30;99.90
52211;DHT22;38179;52.756;6.906;2024-02-26T02:50:15;3.30;99.90
52211;DHT22;38179;52.756;6.906;2024-02-26T02:52:41;3.30;99.90
52211;DHT22;38179;52.756;6.906;2024-02-26T02:55:07;3.30;99.90
52211;DHT22;38179;52.756;6.906;2024-02-26T02:57:33;3.30;99.90
52211;DHT22;38179;52.756;6.906;2024-02-26T02:59:58;3.90;99.90
52211;DHT22;38179;52.756;6.906;2024-02-26T03:02:24;3.30;99.90
52211;DHT22;38179;52.756;6.906;2024-02-26T03:04:50;3.30;99.90
52211;DHT22;38179;52.756;6.906;2024-02-26T03:07:16;3.30;99.90
52211;DHT22;38179;52.756;6.906;2024-02-26T03:09:42;3.30;99.90
52211;DHT22;38179;52.756;6.906;2024-02-26T03:12:08;3.70;99.90
52211;DHT22;38179;52.756;6.906;2024-02-26T03:14:34;3.30;99.90
52211;DHT22;38179;52.756;6.906;2024-02-26T03:17:00;3.30;99.90
52211;DHT22;38179;52.756;6.906;2024-02-26T03:19:26;3.40;99.90
52211;DHT22;38179;52.756;6.906;2024-02-26T03:21:52;3.40;99.90
52211;DHT22;38179;52.756;6.906;2024-02-26T03:24:21;3.30;99.90
52211;DHT22;38179;52.756;6.906;2024-02-26T10:53:26;4.70;99.90
52211;DHT22;38179;52.756;6.906;2024-02-26T10:56:03;4.80;99.90
52211;DHT22;38179;52.756;6.906;2024-02-26T10:58:31;4.80;99.90
52211;DHT22;38179;52.756;6.906;2024-02-26T11:00:57;4.80;99.90
52211;DHT22;38179;52.756;6.906;2024-02-26T11:03:24;4.80;99.90
52211;DHT22;38179;52.756;6.906;2024-02-26T11:05:50;4.90;99.90
52211;DHT22;38179;52.756;6.906;2024-02-26T11:08:19;4.80;99.90
52211;DHT22;38179;52.756;6.906;2024-02-26T11:10:52;4.80;99.90
52211;DHT22;38179;52.756;6.906;2024-02-26T11:13:18;4.90;99.90
52211;DHT22;38179;52.756;6.906;2024-02-26T11:16:06;4.90;99.90
52211;DHT22;38179;52.756;6.906;2024-02-26T11:18:32;5.00;99.90
52211;DHT22;38179;52.756;6.906;2024-02-26T11:20:59;5.00;99.90
52211;DHT22;38179;52.756;6.906;2024-02-26T11:23:26;5.00;99.90
52211;DHT22;38179;52.756;6.906;2024-02-26T11:25:55;5.10;99.90
52211;DHT22;38179;52.756;6.906;2024-02-26T11:28:24;5.10;99.90
52211;DHT22;38179;52.756;6.906;2024-02-26T11:30:51;5.20;99.90
52211;DHT22;38179;52.756;6.906;2024-02-26T11:33:17;5.20;99.90
52211;DHT22;38179;52.756;6.906;2024-02-26T11:35:44;5.20;99.90
52211;DHT22;38179;52.756;6.906;2024-02-26T11:38:19;5.30;99.90
52211;DHT22;38179;52.756;6.906;2024-02-26T11:40:46;5.30;99.90
52211;DHT22;38179;52.756;6.906;2024-02-26T11:43:12;5.30;99.90
52211;DHT22;38179;52.756;6.906;2024-02-26T11:48:15;5.40;99.90
52211;DHT22;38179;52.756;6.906;2024-02-26T11:50:45;5.40;99.90
52211;DHT22;38179;52.756;6.906;2024-02-26T11:53:21;5.40;99.90
52211;DHT22;38179;52.756;6.906;2024-02-26T11:55:48;5.40;99.90
52211;DHT22;38179;52.756;6.906;2024-02-26T11:58:34;5.40;99.90
52211;DHT22;38179;52.756;6.906;2024-02-26T12:00:59;5.40;99.90
52211;DHT22;38179;52.756;6.906;2024-02-26T12:03:25;5.40;99.90
52211;DHT22;38179;52.756;6.906;2024-02-26T12:05:52;5.40;99.90
52211;DHT22;38179;52.756;6.906;2024-02-26T12:08:17;5.40;99.90
52211;DHT22;38179;52.756;6.906;2024-02-26T12:10:46;5.40;99.90
52211;DHT22;38179;52.756;6.906;2024-02-26T12:13:15;5.40;99.90
52211;DHT22;38179;52.756;6.906;2024-02-26T12:15:45;5.40;99.90
52211;DHT22;38179;52.756;6.906;2024-02-26T12:18:17;5.40;99.90
52211;DHT22;38179;52.756;6.906;2024-02-26T12:20:43;5.40;99.90
52211;DHT22;38179;52.756;6.906;2024-02-26T12:23:16;5.60;99.90
52211;DHT22;38179;52.756;6.906;2024-02-26T12:25:43;5.50;99.90
52211;DHT22;38179;52.756;6.906;2024-02-26T12:28:10;5.50;99.90
52211;DHT22;38179;52.756;6.906;2024-02-26T12:30:35;5.40;99.90
52211;DHT22;38179;52.756;6.906;2024-02-26T12:33:01;5.40;99.90
52211;DHT22;38179;52.756;6.906;2024-02-26T12:35:28;5.40;99.90
52211;DHT22;38179;52.756;6.906;2024-02-26T12:37:54;5.40;99.90
52211;DHT22;38179;52.756;6.906;2024-02-26T12:40:21;5.40;99.90
52211;DHT22;38179;52.756;6.906;2024-02-26T12:42:47;5.40;99.90
52211;DHT22;38179;52.756;6.906;2024-02-26T12:45:13;5.40;99.90
52211;DHT22;38179;52.756;6.906;2024-02-26T12:47:42;5.40;99.90
52211;DHT22;38179;52.756;6.906;2024-02-26T12:50:09;5.40;99.90
52211;DHT22;38179;52.756;6.906;2024-02-26T12:52:46;5.40;99.90
52211;DHT22;38179;52.756;6.906;2024-02-26T12:55:16;5.40;99.90
52211;DHT22;38179;52.756;6.906;2024-02-26T12:57:43;5.40;99.90
52211;DHT22;38179;52.756;6.906;2024-02-26T13:00:21;5.40;99.90
52211;DHT22;38179;52.756;6.906;2024-02-26T13:02:49;5.40;99.90
52211;DHT22;38179;52.756;6.906;2024-02-26T13:05:16;5.40;99.90
52211;DHT22;38179;52.756;6.906;2024-02-26T13:07:44;5.40;99.90
52211;DHT22;38179;52.756;6.906;2024-02-26T13:10:12;5.40;99.90
52211;DHT22;38179;52.756;6.906;2024-02-26T13:12:45;5.40;99.90
52211;DHT22;38179;52.756;6.906;2024-02-26T13:15:16;5.40;99.90
52211;DHT22;38179;52.756;6.906;2024-02-26T13:17:42;5.40;99.90
52211;DHT22;38179;52.756;6.906;2024-02-26T13:20:08;5.60;99.90
52211;DHT22;38179;52.756;6.906;2024-02-26T13:22:36;5.40;99.90
52211;DHT22;38179;52.756;6.906;2024-02-26T13:25:01;5.40;99.90
52211;DHT22;38179;52.756;6.906;2024-02-26T13:27:33;5.50;99.90
52211;DHT22;38179;52.756;6.906;2024-02-26T13:30:10;5.50;99.90
52211;DHT22;38179;52.756;6.906;2024-02-26T13:32:37;5.40;99.90
52211;DHT22;38179;52.756;6.906;2024-02-26T13:37:33;5.50;99.90
52211;DHT22;38179;52.756;6.906;2024-02-26T13:40:10;5.50;99.90
52211;DHT22;38179;52.756;6.906;2024-02-26T13:42:39;5.50;99.90
52211;DHT22;38179;52.756;6.906;2024-02-26T13:45:06;5.50;99.90
52211;DHT22;38179;52.756;6.906;2024-02-26T13:47:37;5.50;99.90
52211;DHT22;38179;52.756;6.906;2024-02-26T13:50:04;5.60;99.90
52211;DHT22;38179;52.756;6.906;2024-02-26T13:52:30;5.60;99.90
52211;DHT22;38179;52.756;6.906;2024-02-26T13:54:58;5.50;99.90
52211;DHT22;38179;52.756;6.906;2024-02-26T13:57:24;5.50;99.90
52211;DHT22;38179;52.756;6.906;2024-02-26T13:59:50;5.50;99.90
52211;DHT22;38179;52.756;6.906;2024-02-26T14:02:17;5.70;99.90
52211;DHT22;38179;52.756;6.906;2024-02-26T14:04:43;5.50;99.90
52211;DHT22;38179;52.756;6.906;2024-02-26T14:07:08;5.50;99.90
52211;DHT22;38179;52.756;6.906;2024-02-26T14:09:36;5.50;99.90
52211;DHT22;38179;52.756;6.906;2024-02-26T14:12:01;5.50;99.90
52211;DHT22;38179;52.756;6.906;2024-02-26T14:14:28;5.50;99.90
52211;DHT22;38179;52.756;6.906;2024-02-26T14:16:54;5.50;99.90
52211;DHT22;38179;52.756;6.906;2024-02-26T14:19:19;5.40;99.90
52211;DHT22;38179;52.756;6.906;2024-02-26T14:21:45;5.40;99.90
52211;DHT22;38179;52.756;6.906;2024-02-26T14:24:10;5.40;99.90
52211;DHT22;38179;52.756;6.906;2024-02-26T14:26:36;5.40;99.90
52211;DHT22;38179;52.756;6.906;2024-02-26T14:29:02;5.40;99.90
52211;DHT22;38179;52.756;6.906;2024-02-26T14:31:29;5.40;99.90
52211;DHT22;38179;52.756;6.906;2024-02-26T14:33:54;5.40;99.90
52211;DHT22;38179;52.756;6.906;2024-02-26T14:36:21;5.40;99.90
52211;DHT22;38179;52.756;6.906;2024-02-26T14:38:47;5.40;99.90
52211;DHT22;38179;52.756;6.906;2024-02-26T14:41:13;5.40;99.90
52211;DHT22;38179;52.756;6.906;2024-02-26T14:43:38;5.30;99.90
52211;DHT22;38179;52.756;6.906;2024-02-26T14:46:04;5.40;99.90
52211;DHT22;38179;52.756;6.906;2024-02-26T14:48:30;5.30;99.90
52211;DHT22;38179;52.756;6.906;2024-02-26T14:50:57;5.30;99.90
52211;DHT22;38179;52.756;6.906;2024-02-26T14:53:24;5.30;99.90
52211;DHT22;38179;52.756;6.906;2024-02-26T14:55:50;5.30;99.90
52211;DHT22;38179;52.756;6.906;2024-02-26T14:58:16;5.20;99.90
52211;DHT22;38179;52.756;6.906;2024-02-26T15:00:42;5.40;99.90
52211;DHT22;38179;52.756;6.906;2024-02-26T15:03:08;5.20;99.90
52211;DHT22;38179;52.756;6.906;2024-02-26T15:05:34;5.10;99.90
52211;DHT22;38179;52.756;6.906;2024-02-26T15:08:00;5.10;99.90
52211;DHT22;38179;52.756;6.906;2024-02-26T15:10:25;5.10;99.90
52211;DHT22;38179;52.756;6.906;2024-02-26T15:12:52;5.10;99.90
52211;DHT22;38179;52.756;6.906;2024-02-26T15:15:21;5.10;99.90
52211;DHT22;38179;52.756;6.906;2024-02-26T15:17:47;5.10;99.90
52211;DHT22;38179;52.756;6.906;2024-02-26T15:20:15;5.10;99.90
52211;DHT22;38179;52.756;6.906;2024-02-26T15:22:40;5.00;99.90
52211;DHT22;38179;52.756;6.906;2024-02-26T15:25:07;5.00;99.90
52211;DHT22;38179;52.756;6.906;2024-02-26T15:27:33;5.00;99.90
52211;DHT22;38179;52.756;6.906;2024-02-26T15:30:00;5.00;99.90
52211;DHT22;38179;52.756;6.906;2024-02-26T15:32:26;5.00;99.90
52211;DHT22;38179;52.756;6.906;2024-02-26T15:34:55;5.00;99.90
52211;DHT22;38179;52.756;6.906;2024-02-26T15:37:21;5.00;99.90
52211;DHT22;38179;52.756;6.906;2024-02-26T15:39:48;5.00;99.90
52211;DHT22;38179;52.756;6.906;2024-02-26T15:42:13;5.00;99.90
52211;DHT22;38179;52.756;6.906;2024-02-26T15:44:40;4.90;99.90
52211;DHT22;38179;52.756;6.906;2024-02-26T15:47:06;5.00;99.90
52211;DHT22;38179;52.756;6.906;2024-02-26T15:49:32;4.90;99.90
52211;DHT22;38179;52.756;6.906;2024-02-26T15:51:58;5.10;99.90
52211;DHT22;38179;52.756;6.906;2024-02-26T15:54:24;4.90;99.90
52211;DHT22;38179;52.756;6.906;2024-02-26T15:56:50;4.90;99.90
52211;DHT22;38179;52.756;6.906;2024-02-26T15:59:16;4.90;99.90
52211;DHT22;38179;52.756;6.906;2024-02-26T16:01:41;4.90;99.90
52211;DHT22;38179;52.756;6.906;2024-02-26T16:04:08;4.90;99.90
52211;DHT22;38179;52.756;6.906;2024-02-26T16:06:39;4.90;99.90
52211;DHT22;38179;52.756;6.906;2024-02-26T16:09:06;4.90;99.90
52211;DHT22;38179;52.756;6.906;2024-02-26T16:11:32;4.80;99.90
52211;DHT22;38179;52.756;6.906;2024-02-26T16:17:01;4.80;99.90
52211;DHT22;38179;52.756;6.906;2024-02-26T16:19:29;5.00;99.90
52211;DHT22;38179;52.756;6.906;2024-02-26T16:21:54;4.80;99.90
52211;DHT22;38179;52.756;6.906;2024-02-26T16:24:20;4.80;99.90
52211;DHT22;38179;52.756;6.906;2024-02-26T16:26:46;4.80;99.90
52211;DHT22;38179;52.756;6.906;2024-02-26T16:29:12;4.80;99.90
52211;DHT22;38179;52.756;6.906;2024-02-26T16:31:38;4.80;99.90
52211;DHT22;38179;52.756;6.906;2024-02-26T16:34:03;4.80;99.90
52211;DHT22;38179;52.756;6.906;2024-02-26T16:36:29;4.80;99.90
52211;DHT22;38179;52.756;6.906;2024-02-26T16:38:54;4.80;99.90
52211;DHT22;38179;52.756;6.906;2024-02-26T16:41:20;4.70;99.90
52211;DHT22;38179;52.756;6.906;2024-02-26T16:43:46;4.80;99.90
52211;DHT22;38179;52.756;6.906;2024-02-26T16:46:11;4.70;99.90
52211;DHT22;38179;52.756;6.906;2024-02-26T16:48:37;4.70;99.90
52211;DHT22;38179;52.756;6.906;2024-02-26T16:51:03;4.70;99.90
52211;DHT22;38179;52.756;6.906;2024-02-26T16:53:29;4.70;99.90
52211;DHT22;38179;52.756;6.906;2024-02-26T16:55:54;4.70;99.90
52211;DHT22;38179;52.756;6.906;2024-02-26T16:58:20;4.80;99.90
52211;DHT22;38179;52.756;6.906;2024-02-26T17:00:50;4.70;99.90
52211;DHT22;38179;52.756;6.906;2024-02-26T17:03:15;4.70;99.90
52211;DHT22;38179;52.756;6.906;2024-02-26T17:05:44;4.60;99.90
52211;DHT22;38179;52.756;6.906;2024-02-26T17:08:10;4.60;99.90
52211;DHT22;38179;52.756;6.906;2024-02-26T17:10:39;4.60;99.90
52211;DHT22;38179;52.756;6.906;2024-02-26T17:13:04;4.60;99.90
52211;DHT22;38179;52.756;6.906;2024-02-26T17:15:30;4.60;99.90
52211;DHT22;38179;52.756;6.906;2024-02-26T17:17:56;4.60;99.90
52211;DHT22;38179;52.756;6.906;2024-02-26T17:20:21;4.60;99.90
52211;DHT22;38179;52.756;6.906;2024-02-26T17:22:47;4.50;99.90
52211;DHT22;38179;52.756;6.906;2024-02-26T17:25:13;4.50;99.90
52211;DHT22;38179;52.756;6.906;2024-02-26T17:27:39;4.50;99.90
52211;DHT22;38179;52.756;6.906;2024-02-26T17:30:05;4.50;99.90
52211;DHT22;38179;52.756;6.906;2024-02-26T17:32:32;4.50;99.90
52211;DHT22;38179;52.756;6.906;2024-02-26T17:34:58;4.60;99.90
52211;DHT22;38179;52.756;6.906;2024-02-26T17:37:24;4.90;99.90
52211;DHT22;38179;52.756;6.906;2024-02-26T17:39:50;4.50;99.90
52211;DHT22;38179;52.756;6.906;2024-02-26T17:42:15;4.40;99.90
52211;DHT22;38179;52.756;6.906;2024-02-26T17:44:42;4.40;99.90
52211;DHT22;38179;52.756;6.906;2024-02-26T17:47:08;4.40;99.90
52211;DHT22;38179;52.756;6.906;2024-02-26T17:49:34;4.40;99.90
52211;DHT22;38179;52.756;6.906;2024-02-26T17:52:00;4.40;99.90
52211;DHT22;38179;52.756;6.906;2024-02-26T17:54:27;4.40;99.90
52211;DHT22;38179;52.756;6.906;2024-02-26T17:56:54;4.30;99.90
52211;DHT22;38179;52.756;6.906;2024-02-26T17:59:20;4.50;99.90
52211;DHT22;38179;52.756;6.906;2024-02-26T18:01:46;4.40;99.90
52211;DHT22;38179;52.756;6.906;2024-02-26T18:04:12;4.30;99.90
52211;DHT22;38179;52.756;6.906;2024-02-26T18:06:38;4.30;99.90
52211;DHT22;38179;52.756;6.906;2024-02-26T18:09:05;4.30;99.90
52211;DHT22;38179;52.756;6.906;2024-02-26T18:11:32;4.50;99.90
52211;DHT22;38179;52.756;6.906;2024-02-26T18:13:59;4.20;99.90
52211;DHT22;38179;52.756;6.906;2024-02-26T18:16:25;4.50;99.90
52211;DHT22;38179;52.756;6.906;2024-02-26T18:18:51;4.20;99.90
52211;DHT22;38179;52.756;6.906;2024-02-26T18:21:17;4.20;99.90
52211;DHT22;38179;52.756;6.906;2024-02-26T18:23:44;4.20;99.90
52211;DHT22;38179;52.756;6.906;2024-02-26T18:26:10;4.20;99.90
52211;DHT22;38179;52.756;6.906;2024-02-26T18:28:35;4.20;99.90
52211;DHT22;38179;52.756;6.906;2024-02-26T18:31:01;4.20;99.90
52211;DHT22;38179;52.756;6.906;2024-02-26T18:33:30;4.20;99.90
52211;DHT22;38179;52.756;6.906;2024-02-26T18:35:56;4.20;99.90
52211;DHT22;38179;52.756;6.906;2024-02-26T18:38:22;4.10;99.90
52211;DHT22;38179;52.756;6.906;2024-02-26T18:40:47;4.20;99.90
52211;DHT22;38179;52.756;6.906;2024-02-26T18:43:13;4.10;99.90
52211;DHT22;38179;52.756;6.906;2024-02-26T18:45:39;4.10;99.90
52211;DHT22;38179;52.756;6.906;2024-02-26T18:48:06;4.60;99.90
52211;DHT22;38179;52.756;6.906;2024-02-26T18:50:33;4.10;99.90
52211;DHT22;38179;52.756;6.906;2024-02-26T18:52:58;4.10;99.90
52211;DHT22;38179;52.756;6.906;2024-02-26T18:55:27;4.10;99.90
52211;DHT22;38179;52.756;6.906;2024-02-26T18:57:53;4.10;99.90
52211;DHT22;38179;52.756;6.906;2024-02-26T19:00:19;4.10;99.90
52211;DHT22;38179;52.756;6.906;2024-02-26T19:02:44;4.10;99.90
52211;DHT22;38179;52.756;6.906;2024-02-26T19:05:14;4.10;99.90
52211;DHT22;38179;52.756;6.906;2024-02-26T19:07:42;4.00;99.90
52211;DHT22;38179;52.756;6.906;2024-02-26T19:10:08;4.00;99.90
52211;DHT22;38179;52.756;6.906;2024-02-26T19:12:34;4.00;99.90
52211;DHT22;38179;52.756;6.906;2024-02-26T19:15:00;4.00;99.90
52211;DHT22;38179;52.756;6.906;2024-02-26T19:17:25;4.40;99.90
52211;DHT22;38179;52.756;6.906;2024-02-26T19:19:51;4.00;99.90
52211;DHT22;38179;52.756;6.906;2024-02-26T19:22:17;4.00;99.90
52211;DHT22;38179;52.756;6.906;2024-02-26T19:24:42;4.00;99.90
52211;DHT22;38179;52.756;6.906;2024-02-26T19:27:08;4.00;99.90
52211;DHT22;38179;52.756;6.906;2024-02-26T19:29:34;4.00;99.90
52211;DHT22;38179;52.756;6.906;2024-02-26T19:32:00;3.90;99.90
52211;DHT22;38179;52.756;6.906;2024-02-26T19:34:28;3.90;99.90
52211;DHT22;38179;52.756;6.906;2024-02-26T19:36:54;3.90;99.90
52211;DHT22;38179;52.756;6.906;2024-02-26T19:39:19;3.90;99.90
52211;DHT22;38179;52.756;6.906;2024-02-26T19:41:45;3.90;99.90
52211;DHT22;38179;52.756;6.906;2024-02-26T19:44:11;4.10;99.90
52211;DHT22;38179;52.756;6.906;2024-02-26T19:46:41;3.90;99.90
52211;DHT22;38179;52.756;6.906;2024-02-26T19:49:07;3.80;99.90
52211;DHT22;38179;52.756;6.906;2024-02-26T19:51:33;3.80;99.90
52211;DHT22;38179;52.756;6.906;2024-02-26T19:53:59;3.80;99.90
52211;DHT22;38179;52.756;6.906;2024-02-26T19:56:27;4.30;99.90
52211;DHT22;38179;52.756;6.906;2024-02-26T19:58:53;3.80;99.90
52211;DHT22;38179;52.756;6.906;2024-02-26T20:01:20;3.80;99.90
52211;DHT22;38179;52.756;6.906;2024-02-26T20:03:46;4.10;99.90
52211;DHT22;38179;52.756;6.906;2024-02-26T20:06:12;3.80;99.90
52211;DHT22;38179;52.756;6.906;2024-02-26T20:08:38;4.00;99.90
52211;DHT22;38179;52.756;6.906;2024-02-26T20:11:03;3.90;99.90
52211;DHT22;38179;52.756;6.906;2024-02-26T20:13:30;3.90;99.90
52211;DHT22;38179;52.756;6.906;2024-02-26T20:15:56;3.80;99.90
52211;DHT22;38179;52.756;6.906;2024-02-26T20:18:22;3.90;99.90
52211;DHT22;38179;52.756;6.906;2024-02-26T20:20:47;3.80;99.90
52211;DHT22;38179;52.756;6.906;2024-02-26T20:23:13;3.80;99.90
52211;DHT22;38179;52.756;6.906;2024-02-26T20:25:39;3.80;99.90
52211;DHT22;38179;52.756;6.906;2024-02-26T20:28:04;3.90;99.90
52211;DHT22;38179;52.756;6.906;2024-02-26T20:30:30;3.80;99.90
52211;DHT22;38179;52.756;6.906;2024-02-26T20:32:56;4.20;99.90
52211;DHT22;38179;52.756;6.906;2024-02-26T20:35:22;4.30;99.90
52211;DHT22;38179;52.756;6.906;2024-02-26T20:37:47;3.80;99.90
52211;DHT22;38179;52.756;6.906;2024-02-26T20:40:14;3.80;99.90
52211;DHT22;38179;52.756;6.906;2024-02-26T20:42:45;3.80;99.90
52211;DHT22;38179;52.756;6.906;2024-02-26T20:45:12;4.10;99.90
52211;DHT22;38179;52.756;6.906;2024-02-26T20:47:39;3.80;99.90
52211;DHT22;38179;52.756;6.906;2024-02-26T20:50:05;3.70;99.90
52211;DHT22;38179;52.756;6.906;2024-02-26T20:52:32;3.70;99.90
52211;DHT22;38179;52.756;6.906;2024-02-26T20:54:57;3.90;99.90
52211;DHT22;38179;52.756;6.906;2024-02-26T20:57:24;3.80;99.90
52211;DHT22;38179;52.756;6.906;2024-02-26T20:59:50;3.60;99.90
52211;DHT22;38179;52.756;6.906;2024-02-26T21:02:16;3.70;99.90
52211;DHT22;38179;52.756;6.906;2024-02-26T21:04:41;3.60;99.90
52211;DHT22;38179;52.756;6.906;2024-02-26T21:07:07;3.50;99.90
52211;DHT22;38179;52.756;6.906;2024-02-26T21:09:33;3.90;99.90
52211;DHT22;38179;52.756;6.906;2024-02-26T21:11:58;3.50;99.90
52211;DHT22;38179;52.756;6.906;2024-02-26T21:14:24;3.70;99.90
52211;DHT22;38179;52.756;6.906;2024-02-26T21:16:50;3.60;99.90
52211;DHT22;38179;52.756;6.906;2024-02-26T21:19:15;3.50;99.90
52211;DHT22;38179;52.756;6.906;2024-02-26T21:21:41;3.40;99.90
52211;DHT22;38179;52.756;6.906;2024-02-26T21:24:07;3.40;99.90
52211;DHT22;38179;52.756;6.906;2024-02-26T21:26:33;3.60;99.90
52211;DHT22;38179;52.756;6.906;2024-02-26T21:28:59;3.40;99.90
52211;DHT22;38179;52.756;6.906;2024-02-26T21:31:24;3.40;99.90
52211;DHT22;38179;52.756;6.906;2024-02-26T21:33:50;3.40;99.90
52211;DHT22;38179;52.756;6.906;2024-02-26T21:36:16;3.30;99.90
52211;DHT22;38179;52.756;6.906;2024-02-26T21:38:46;3.60;99.90
52211;DHT22;38179;52.756;6.906;2024-02-26T21:41:11;3.40;99.90
52211;DHT22;38179;52.756;6.906;2024-02-26T21:43:38;3.30;99.90
52211;DHT22;38179;52.756;6.906;2024-02-26T21:46:05;3.40;99.90
52211;DHT22;38179;52.756;6.906;2024-02-26T21:48:31;3.20;99.90
52211;DHT22;38179;52.756;6.906;2024-02-26T21:50:57;3.20;99.90
52211;DHT22;38179;52.756;6.906;2024-02-26T21:53:22;3.20;99.90
52211;DHT22;38179;52.756;6.906;2024-02-26T21:55:48;3.20;99.90
52211;DHT22;38179;52.756;6.906;2024-02-26T21:58:14;3.80;99.90
52211;DHT22;38179;52.756;6.906;2024-02-26T22:00:39;3.70;99.90
52211;DHT22;38179;52.756;6.906;2024-02-26T22:03:05;3.20;99.90
52211;DHT22;38179;52.756;6.906;2024-02-26T22:05:31;3.20;99.90
52211;DHT22;38179;52.756;6.906;2024-02-26T22:07:56;3.30;99.90
52211;DHT22;38179;52.756;6.906;2024-02-26T22:10:22;3.60;99.90
52211;DHT22;38179;52.756;6.906;2024-02-26T22:12:48;3.20;99.90
52211;DHT22;38179;52.756;6.906;2024-02-26T22:15:13;3.20;99.90
52211;DHT22;38179;52.756;6.906;2024-02-26T22:17:39;3.20;99.90
52211;DHT22;38179;52.756;6.906;2024-02-26T22:20:09;3.20;99.90
52211;DHT22;38179;52.756;6.906;2024-02-26T22:22:36;3.20;99.90
52211;DHT22;38179;52.756;6.906;2024-02-26T22:25:02;3.20;99.90
52211;DHT22;38179;52.756;6.906;2024-02-26T22:27:29;3.10;99.90
52211;DHT22;38179;52.756;6.906;2024-02-26T22:29:54;3.50;99.90
52211;DHT22;38179;52.756;6.906;2024-02-26T22:32:20;3.20;99.90
52211;DHT22;38179;52.756;6.906;2024-02-26T22:34:45;3.10;99.90
52211;DHT22;38179;52.756;6.906;2024-02-26T22:37:11;3.10;99.90
52211;DHT22;38179;52.756;6.906;2024-02-26T22:39:39;3.10;99.90
52211;DHT22;38179;52.756;6.906;2024-02-26T22:42:05;3.10;99.90
52211;DHT22;38179;52.756;6.906;2024-02-26T22:44:30;3.10;99.90
52211;DHT22;38179;52.756;6.906;2024-02-26T22:46:56;3.50;99.90
52211;DHT22;38179;52.756;6.906;2024-02-26T22:49:21;3.10;99.90
52211;DHT22;38179;52.756;6.906;2024-02-26T22:51:47;3.10;99.90
52211;DHT22;38179;52.756;6.906;2024-02-26T22:54:14;3.40;99.90
52211;DHT22;38179;52.756;6.906;2024-02-26T22:56:39;3.10;99.90
52211;DHT22;38179;52.756;6.906;2024-02-26T22:59:06;3.10;99.90
52211;DHT22;38179;52.756;6.906;2024-02-26T23:01:32;3.10;99.90
52211;DHT22;38179;52.756;6.906;2024-02-26T23:03:58;3.10;99.90
52211;DHT22;38179;52.756;6.906;2024-02-26T23:06:24;3.10;99.90
52211;DHT22;38179;52.756;6.906;2024-02-26T23:08:50;3.10;99.90
52211;DHT22;38179;52.756;6.906;2024-02-26T23:11:15;3.00;99.90
52211;DHT22;38179;52.756;6.906;2024-02-26T23:13:42;3.00;99.90
52211;DHT22;38179;52.756;6.906;2024-02-26T23:16:08;3.00;99.90